sensor_id;sensor_type;location;lat;lon;timestamp;P1;durP1;ratioP1;P2;durP2;ratioP2
51312;SDS011;37397;53.226;10.400;2023-08-06T00:00:52;7.97;;;4.30;;
51312;SDS011;37397;53.226;10.400;2023-08-06T00:03:18;7.88;;;4.32;;
51312;SDS011;37397;53.226;10.400;2023-08-06T00:05:45;7.80;;;4.10;;
51312;SDS011;37397;53.226;10.400;2023-08-06T00:08:11;7.38;;;4.15;;
51312;SDS011;37397;53.226;10.400;2023-08-06T00:10:39;5.85;;;4.07;;
51312;SDS011;37397;53.226;10.400;2023-08-06T00:13:06;7.30;;;3.88;;
51312;SDS011;37397;53.226;10.400;2023-08-06T00:15:33;7.95;;;4.30;;
51312;SDS011;37397;53.226;10.400;2023-08-06T00:17:59;8.60;;;4.75;;
51312;SDS011;37397;53.226;10.400;2023-08-06T00:20:26;7.25;;;3.90;;
51312;SDS011;37397;53.226;10.400;2023-08-06T00:22:52;8.30;;;4.47;;
51312;SDS011;37397;53.226;10.400;2023-08-06T00:25:19;7.18;;;3.83;;
51312;SDS011;37397;53.226;10.400;2023-08-06T00:27:46;8.93;;;4.25;;
51312;SDS011;37397;53.226;10.400;2023-08-06T00:30:12;8.13;;;4.28;;
51312;SDS011;37397;53.226;10.400;2023-08-06T00:32:39;8.57;;;4.35;;
51312;SDS011;37397;53.226;10.400;2023-08-06T00:35:06;7.65;;;4.20;;
51312;SDS011;37397;53.226;10.400;2023-08-06T00:37:33;6.38;;;3.90;;
51312;SDS011;37397;53.226;10.400;2023-08-06T00:39:59;8.27;;;4.20;;
51312;SDS011;37397;53.226;10.400;2023-08-06T00:42:27;6.70;;;3.92;;
51312;SDS011;37397;53.226;10.400;2023-08-06T00:44:54;6.55;;;3.80;;
51312;SDS011;37397;53.226;10.400;2023-08-06T00:47:20;7.60;;;4.10;;
51312;SDS011;37397;53.226;10.400;2023-08-06T00:49:47;6.70;;;4.20;;
51312;SDS011;37397;53.226;10.400;2023-08-06T00:52:13;6.68;;;3.92;;
51312;SDS011;37397;53.226;10.400;2023-08-06T00:54:40;6.97;;;3.95;;
51312;SDS011;37397;53.226;10.400;2023-08-06T00:57:07;6.43;;;3.75;;
51312;SDS011;37397;53.226;10.400;2023-08-06T00:59:35;7.85;;;4.10;;
51312;SDS011;37397;53.226;10.400;2023-08-06T01:02:03;8.80;;;4.20;;
51312;SDS011;37397;53.226;10.400;2023-08-06T01:04:29;7.72;;;4.50;;
51312;SDS011;37397;53.226;10.400;2023-08-06T01:07:02;5.45;;;3.58;;
51312;SDS011;37397;53.226;10.400;2023-08-06T01:09:50;6.32;;;3.90;;
51312;SDS011;37397;53.226;10.400;2023-08-06T01:12:43;7.47;;;3.95;;
51312;SDS011;37397;53.226;10.400;2023-08-06T01:15:18;6.55;;;4.00;;
51312;SDS011;37397;53.226;10.400;2023-08-06T01:17:48;7.15;;;4.10;;
51312;SDS011;37397;53.226;10.400;2023-08-06T01:20:16;6.45;;;3.80;;
51312;SDS011;37397;53.226;10.400;2023-08-06T01:22:42;6.90;;;4.18;;
51312;SDS011;37397;53.226;10.400;2023-08-06T01:25:09;7.00;;;4.00;;
51312;SDS011;37397;53.226;10.400;2023-08-06T01:27:44;6.10;;;4.00;;
51312;SDS011;37397;53.226;10.400;2023-08-06T01:30:26;7.05;;;4.15;;
51312;SDS011;37397;53.226;10.400;2023-08-06T01:32:59;8.05;;;4.38;;
51312;SDS011;37397;53.226;10.400;2023-08-06T01:35:29;6.88;;;3.88;;
51312;SDS011;37397;53.226;10.400;2023-08-06T01:37:58;5.82;;;3.55;;
51312;SDS011;37397;53.226;10.400;2023-08-06T01:40:29;6.45;;;3.88;;
51312;SDS011;37397;53.226;10.400;2023-08-06T01:42:56;8.27;;;3.70;;
51312;SDS011;37397;53.226;10.400;2023-08-06T01:45:23;6.28;;;3.78;;
51312;SDS011;37397;53.226;10.400;2023-08-06T01:47:50;6.28;;;3.25;;
51312;SDS011;37397;53.226;10.400;2023-08-06T01:50:16;6.60;;;3.97;;
51312;SDS011;37397;53.226;10.400;2023-08-06T01:52:44;8.10;;;3.80;;
51312;SDS011;37397;53.226;10.400;2023-08-06T01:55:10;7.20;;;4.13;;
51312;SDS011;37397;53.226;10.400;2023-08-06T01:57:37;7.75;;;3.90;;
51312;SDS011;37397;53.226;10.400;2023-08-06T02:00:03;5.80;;;3.92;;
51312;SDS011;37397;53.226;10.400;2023-08-06T02:02:38;5.05;;;3.45;;
51312;SDS011;37397;53.226;10.400;2023-08-06T02:05:05;8.65;;;4.07;;
51312;SDS011;37397;53.226;10.400;2023-08-06T02:07:32;6.95;;;3.72;;
51312;SDS011;37397;53.226;10.400;2023-08-06T02:09:58;6.35;;;3.80;;
51312;SDS011;37397;53.226;10.400;2023-08-06T02:12:25;5.43;;;3.30;;
51312;SDS011;37397;53.226;10.400;2023-08-06T02:14:52;6.93;;;4.03;;
51312;SDS011;37397;53.226;10.400;2023-08-06T02:17:18;6.63;;;3.80;;
51312;SDS011;37397;53.226;10.400;2023-08-06T02:19:45;6.57;;;3.75;;
51312;SDS011;37397;53.226;10.400;2023-08-06T02:22:11;6.10;;;4.00;;
51312;SDS011;37397;53.226;10.400;2023-08-06T02:24:38;7.90;;;4.00;;
51312;SDS011;37397;53.226;10.400;2023-08-06T02:27:04;7.50;;;3.80;;
51312;SDS011;37397;53.226;10.400;2023-08-06T02:29:32;5.30;;;3.40;;
51312;SDS011;37397;53.226;10.400;2023-08-06T02:31:58;6.05;;;4.22;;
51312;SDS011;37397;53.226;10.400;2023-08-06T02:34:27;6.45;;;4.05;;
51312;SDS011;37397;53.226;10.400;2023-08-06T02:36:54;7.97;;;3.92;;
51312;SDS011;37397;53.226;10.400;2023-08-06T02:39:20;6.72;;;3.97;;
51312;SDS011;37397;53.226;10.400;2023-08-06T02:41:47;7.35;;;4.13;;
51312;SDS011;37397;53.226;10.400;2023-08-06T02:44:14;5.53;;;3.75;;
51312;SDS011;37397;53.226;10.400;2023-08-06T02:46:43;8.63;;;4.40;;
51312;SDS011;37397;53.226;10.400;2023-08-06T02:49:11;8.23;;;4.50;;
51312;SDS011;37397;53.226;10.400;2023-08-06T02:51:37;6.35;;;3.83;;
51312;SDS011;37397;53.226;10.400;2023-08-06T02:54:04;8.48;;;4.38;;
51312;SDS011;37397;53.226;10.400;2023-08-06T02:56:32;6.53;;;4.25;;
51312;SDS011;37397;53.226;10.400;2023-08-06T02:59:07;6.50;;;4.45;;
51312;SDS011;37397;53.226;10.400;2023-08-06T03:01:45;6.45;;;4.10;;
51312;SDS011;37397;53.226;10.400;2023-08-06T03:04:18;6.37;;;4.00;;
51312;SDS011;37397;53.226;10.400;2023-08-06T03:06:48;5.93;;;4.00;;
51312;SDS011;37397;53.226;10.400;2023-08-06T03:09:16;7.45;;;4.50;;
51312;SDS011;37397;53.226;10.400;2023-08-06T03:11:43;6.95;;;4.25;;
51312;SDS011;37397;53.226;10.400;2023-08-06T03:14:13;6.68;;;4.13;;
51312;SDS011;37397;53.226;10.400;2023-08-06T03:16:41;7.00;;;4.20;;
51312;SDS011;37397;53.226;10.400;2023-08-06T03:19:07;7.80;;;4.35;;
51312;SDS011;37397;53.226;10.400;2023-08-06T03:21:34;7.53;;;3.97;;
51312;SDS011;37397;53.226;10.400;2023-08-06T03:24:03;8.95;;;4.43;;
51312;SDS011;37397;53.226;10.400;2023-08-06T03:26:32;7.30;;;4.13;;
51312;SDS011;37397;53.226;10.400;2023-08-06T03:28:58;8.48;;;4.50;;
51312;SDS011;37397;53.226;10.400;2023-08-06T03:31:27;6.55;;;3.97;;
51312;SDS011;37397;53.226;10.400;2023-08-06T03:33:54;7.68;;;4.00;;
51312;SDS011;37397;53.226;10.400;2023-08-06T03:36:24;8.77;;;4.15;;
51312;SDS011;37397;53.226;10.400;2023-08-06T03:38:51;8.15;;;4.18;;
51312;SDS011;37397;53.226;10.400;2023-08-06T03:41:18;8.73;;;4.07;;
51312;SDS011;37397;53.226;10.400;2023-08-06T03:43:45;8.30;;;4.50;;
51312;SDS011;37397;53.226;10.400;2023-08-06T03:46:18;7.50;;;4.33;;
51312;SDS011;37397;53.226;10.400;2023-08-06T03:48:45;7.88;;;4.00;;
51312;SDS011;37397;53.226;10.400;2023-08-06T03:51:11;8.63;;;4.45;;
51312;SDS011;37397;53.226;10.400;2023-08-06T03:53:39;8.40;;;4.25;;
51312;SDS011;37397;53.226;10.400;2023-08-06T03:56:06;6.93;;;4.28;;
51312;SDS011;37397;53.226;10.400;2023-08-06T03:58:33;7.20;;;4.03;;
51312;SDS011;37397;53.226;10.400;2023-08-06T04:01:00;7.75;;;4.20;;
51312;SDS011;37397;53.226;10.400;2023-08-06T04:03:33;7.43;;;4.28;;
51312;SDS011;37397;53.226;10.400;2023-08-06T04:06:02;8.45;;;4.50;;
51312;SDS011;37397;53.226;10.400;2023-08-06T04:08:29;8.10;;;4.35;;
51312;SDS011;37397;53.226;10.400;2023-08-06T04:10:55;8.73;;;3.97;;
51312;SDS011;37397;53.226;10.400;2023-08-06T04:13:22;8.02;;;4.80;;
51312;SDS011;37397;53.226;10.400;2023-08-06T04:15:48;7.22;;;4.40;;
51312;SDS011;37397;53.226;10.400;2023-08-06T04:18:15;7.90;;;4.20;;
51312;SDS011;37397;53.226;10.400;2023-08-06T04:20:43;7.78;;;4.45;;
51312;SDS011;37397;53.226;10.400;2023-08-06T04:23:13;7.25;;;4.47;;
51312;SDS011;37397;53.226;10.400;2023-08-06T04:25:39;7.45;;;4.78;;
51312;SDS011;37397;53.226;10.400;2023-08-06T04:28:06;7.38;;;4.25;;
51312;SDS011;37397;53.226;10.400;2023-08-06T04:30:33;7.72;;;4.55;;
51312;SDS011;37397;53.226;10.400;2023-08-06T04:33:01;8.60;;;4.13;;
51312;SDS011;37397;53.226;10.400;2023-08-06T04:35:28;7.93;;;4.30;;
51312;SDS011;37397;53.226;10.400;2023-08-06T04:37:55;6.63;;;3.97;;
51312;SDS011;37397;53.226;10.400;2023-08-06T04:40:21;6.40;;;4.13;;
51312;SDS011;37397;53.226;10.400;2023-08-06T04:42:48;7.43;;;4.55;;
51312;SDS011;37397;53.226;10.400;2023-08-06T04:45:14;7.40;;;4.07;;
51312;SDS011;37397;53.226;10.400;2023-08-06T04:47:41;6.57;;;4.25;;
51312;SDS011;37397;53.226;10.400;2023-08-06T04:50:07;6.95;;;4.35;;
51312;SDS011;37397;53.226;10.400;2023-08-06T04:52:34;9.20;;;4.00;;
51312;SDS011;37397;53.226;10.400;2023-08-06T04:55:01;9.45;;;4.45;;
51312;SDS011;37397;53.226;10.400;2023-08-06T04:57:27;7.70;;;4.47;;
51312;SDS011;37397;53.226;10.400;2023-08-06T04:59:54;10.57;;;4.22;;
51312;SDS011;37397;53.226;10.400;2023-08-06T05:02:20;7.50;;;4.20;;
51312;SDS011;37397;53.226;10.400;2023-08-06T05:04:47;6.40;;;3.95;;
51312;SDS011;37397;53.226;10.400;2023-08-06T05:07:13;6.28;;;3.92;;
51312;SDS011;37397;53.226;10.400;2023-08-06T05:09:40;8.38;;;4.30;;
51312;SDS011;37397;53.226;10.400;2023-08-06T05:12:06;8.07;;;4.38;;
51312;SDS011;37397;53.226;10.400;2023-08-06T05:14:33;8.50;;;4.07;;
51312;SDS011;37397;53.226;10.400;2023-08-06T05:17:00;6.95;;;4.25;;
51312;SDS011;37397;53.226;10.400;2023-08-06T05:19:28;6.88;;;4.00;;
51312;SDS011;37397;53.226;10.400;2023-08-06T05:21:55;7.25;;;4.07;;
51312;SDS011;37397;53.226;10.400;2023-08-06T05:24:21;6.50;;;4.10;;
51312;SDS011;37397;53.226;10.400;2023-08-06T05:26:48;8.40;;;4.20;;
51312;SDS011;37397;53.226;10.400;2023-08-06T05:29:16;6.82;;;4.45;;
51312;SDS011;37397;53.226;10.400;2023-08-06T05:31:43;6.25;;;4.20;;
51312;SDS011;37397;53.226;10.400;2023-08-06T05:34:09;9.27;;;4.10;;
51312;SDS011;37397;53.226;10.400;2023-08-06T05:36:36;8.13;;;4.43;;
51312;SDS011;37397;53.226;10.400;2023-08-06T05:39:02;7.20;;;3.88;;
51312;SDS011;37397;53.226;10.400;2023-08-06T05:41:29;8.50;;;4.47;;
51312;SDS011;37397;53.226;10.400;2023-08-06T05:43:56;7.47;;;4.32;;
51312;SDS011;37397;53.226;10.400;2023-08-06T05:46:23;7.15;;;4.30;;
51312;SDS011;37397;53.226;10.400;2023-08-06T05:48:50;7.68;;;4.38;;
51312;SDS011;37397;53.226;10.400;2023-08-06T05:51:17;7.68;;;4.47;;
51312;SDS011;37397;53.226;10.400;2023-08-06T05:53:44;7.22;;;4.43;;
51312;SDS011;37397;53.226;10.400;2023-08-06T05:56:12;5.68;;;3.70;;
51312;SDS011;37397;53.226;10.400;2023-08-06T05:58:38;8.50;;;4.65;;
51312;SDS011;37397;53.226;10.400;2023-08-06T06:01:05;7.65;;;4.30;;
51312;SDS011;37397;53.226;10.400;2023-08-06T06:03:31;8.48;;;4.55;;
51312;SDS011;37397;53.226;10.400;2023-08-06T06:06:00;8.05;;;4.47;;
51312;SDS011;37397;53.226;10.400;2023-08-06T06:08:27;7.65;;;4.57;;
51312;SDS011;37397;53.226;10.400;2023-08-06T06:10:54;9.48;;;4.78;;
51312;SDS011;37397;53.226;10.400;2023-08-06T06:13:20;7.35;;;4.35;;
51312;SDS011;37397;53.226;10.400;2023-08-06T06:15:47;6.22;;;4.20;;
51312;SDS011;37397;53.226;10.400;2023-08-06T06:18:13;7.28;;;4.50;;
51312;SDS011;37397;53.226;10.400;2023-08-06T06:20:40;9.50;;;4.57;;
51312;SDS011;37397;53.226;10.400;2023-08-06T06:23:06;8.48;;;4.50;;
51312;SDS011;37397;53.226;10.400;2023-08-06T06:25:33;9.07;;;4.53;;
51312;SDS011;37397;53.226;10.400;2023-08-06T06:27:59;8.60;;;4.70;;
51312;SDS011;37397;53.226;10.400;2023-08-06T06:30:26;9.20;;;4.38;;
51312;SDS011;37397;53.226;10.400;2023-08-06T06:32:52;9.50;;;4.00;;
51312;SDS011;37397;53.226;10.400;2023-08-06T06:35:19;9.20;;;4.47;;
51312;SDS011;37397;53.226;10.400;2023-08-06T06:37:45;9.57;;;4.43;;
51312;SDS011;37397;53.226;10.400;2023-08-06T06:40:12;7.72;;;4.32;;
51312;SDS011;37397;53.226;10.400;2023-08-06T06:42:40;7.15;;;4.22;;
51312;SDS011;37397;53.226;10.400;2023-08-06T06:45:08;6.60;;;4.40;;
51312;SDS011;37397;53.226;10.400;2023-08-06T06:47:35;8.15;;;4.57;;
51312;SDS011;37397;53.226;10.400;2023-08-06T06:50:02;8.07;;;4.82;;
51312;SDS011;37397;53.226;10.400;2023-08-06T06:52:29;8.60;;;4.20;;
51312;SDS011;37397;53.226;10.400;2023-08-06T06:54:55;9.70;;;5.00;;
51312;SDS011;37397;53.226;10.400;2023-08-06T06:57:22;7.28;;;4.35;;
51312;SDS011;37397;53.226;10.400;2023-08-06T06:59:48;7.38;;;4.72;;
51312;SDS011;37397;53.226;10.400;2023-08-06T07:02:15;5.82;;;4.07;;
51312;SDS011;37397;53.226;10.400;2023-08-06T07:04:41;8.27;;;4.22;;
51312;SDS011;37397;53.226;10.400;2023-08-06T07:07:08;7.03;;;4.40;;
51312;SDS011;37397;53.226;10.400;2023-08-06T07:09:34;7.85;;;4.53;;
51312;SDS011;37397;53.226;10.400;2023-08-06T07:12:01;8.43;;;4.47;;
51312;SDS011;37397;53.226;10.400;2023-08-06T07:14:28;8.02;;;4.30;;
51312;SDS011;37397;53.226;10.400;2023-08-06T07:16:55;9.18;;;4.68;;
51312;SDS011;37397;53.226;10.400;2023-08-06T07:19:23;7.40;;;4.78;;
51312;SDS011;37397;53.226;10.400;2023-08-06T07:21:49;8.13;;;4.55;;
51312;SDS011;37397;53.226;10.400;2023-08-06T07:24:17;7.07;;;4.40;;
51312;SDS011;37397;53.226;10.400;2023-08-06T07:26:44;8.70;;;5.00;;
51312;SDS011;37397;53.226;10.400;2023-08-06T07:29:10;8.57;;;4.68;;
51312;SDS011;37397;53.226;10.400;2023-08-06T07:31:37;8.40;;;4.97;;
51312;SDS011;37397;53.226;10.400;2023-08-06T07:34:03;9.30;;;4.63;;
51312;SDS011;37397;53.226;10.400;2023-08-06T07:36:30;9.98;;;4.85;;
51312;SDS011;37397;53.226;10.400;2023-08-06T07:38:57;11.25;;;5.13;;
51312;SDS011;37397;53.226;10.400;2023-08-06T07:41:24;7.53;;;4.82;;
51312;SDS011;37397;53.226;10.400;2023-08-06T07:43:50;7.75;;;4.70;;
51312;SDS011;37397;53.226;10.400;2023-08-06T07:46:17;9.05;;;5.18;;
51312;SDS011;37397;53.226;10.400;2023-08-06T07:48:43;9.63;;;4.57;;
51312;SDS011;37397;53.226;10.400;2023-08-06T07:51:10;9.63;;;4.90;;
51312;SDS011;37397;53.226;10.400;2023-08-06T07:53:37;7.43;;;4.32;;
51312;SDS011;37397;53.226;10.400;2023-08-06T07:56:04;8.25;;;4.75;;
51312;SDS011;37397;53.226;10.400;2023-08-06T07:58:31;7.72;;;4.93;;
51312;SDS011;37397;53.226;10.400;2023-08-06T08:00:58;9.00;;;4.95;;
51312;SDS011;37397;53.226;10.400;2023-08-06T08:03:24;7.65;;;4.85;;
51312;SDS011;37397;53.226;10.400;2023-08-06T08:05:54;7.47;;;4.88;;
51312;SDS011;37397;53.226;10.400;2023-08-06T08:08:22;9.40;;;4.47;;
51312;SDS011;37397;53.226;10.400;2023-08-06T08:10:49;7.00;;;4.60;;
51312;SDS011;37397;53.226;10.400;2023-08-06T08:13:15;10.35;;;5.38;;
51312;SDS011;37397;53.226;10.400;2023-08-06T08:15:42;7.63;;;5.30;;
51312;SDS011;37397;53.226;10.400;2023-08-06T08:18:08;8.40;;;5.32;;
51312;SDS011;37397;53.226;10.400;2023-08-06T08:20:35;8.65;;;5.10;;
51312;SDS011;37397;53.226;10.400;2023-08-06T08:23:02;8.77;;;5.40;;
51312;SDS011;37397;53.226;10.400;2023-08-06T08:25:29;10.68;;;5.22;;
51312;SDS011;37397;53.226;10.400;2023-08-06T08:27:57;7.95;;;4.95;;
51312;SDS011;37397;53.226;10.400;2023-08-06T08:30:24;8.77;;;5.32;;
51312;SDS011;37397;53.226;10.400;2023-08-06T08:32:52;8.38;;;5.07;;
51312;SDS011;37397;53.226;10.400;2023-08-06T08:35:19;8.45;;;5.72;;
51312;SDS011;37397;53.226;10.400;2023-08-06T08:37:46;11.40;;;6.20;;
51312;SDS011;37397;53.226;10.400;2023-08-06T08:40:13;10.32;;;5.38;;
51312;SDS011;37397;53.226;10.400;2023-08-06T08:42:40;7.53;;;5.05;;
51312;SDS011;37397;53.226;10.400;2023-08-06T08:45:11;9.38;;;6.53;;
51312;SDS011;37397;53.226;10.400;2023-08-06T08:47:42;10.57;;;5.35;;
51312;SDS011;37397;53.226;10.400;2023-08-06T08:50:10;8.88;;;5.72;;
51312;SDS011;37397;53.226;10.400;2023-08-06T08:52:38;7.55;;;5.40;;
51312;SDS011;37397;53.226;10.400;2023-08-06T08:55:09;10.43;;;6.78;;
51312;SDS011;37397;53.226;10.400;2023-08-06T08:57:36;9.50;;;6.20;;
51312;SDS011;37397;53.226;10.400;2023-08-06T09:00:03;10.60;;;5.82;;
51312;SDS011;37397;53.226;10.400;2023-08-06T09:02:30;11.27;;;6.03;;
51312;SDS011;37397;53.226;10.400;2023-08-06T09:04:59;10.45;;;6.68;;
51312;SDS011;37397;53.226;10.400;2023-08-06T09:07:34;11.02;;;6.40;;
51312;SDS011;37397;53.226;10.400;2023-08-06T09:10:05;11.18;;;6.25;;
51312;SDS011;37397;53.226;10.400;2023-08-06T09:12:36;11.35;;;6.45;;
51312;SDS011;37397;53.226;10.400;2023-08-06T09:15:03;11.52;;;6.45;;
51312;SDS011;37397;53.226;10.400;2023-08-06T09:17:30;8.65;;;5.93;;
51312;SDS011;37397;53.226;10.400;2023-08-06T09:19:57;10.10;;;6.25;;
51312;SDS011;37397;53.226;10.400;2023-08-06T09:22:23;8.35;;;5.80;;
51312;SDS011;37397;53.226;10.400;2023-08-06T09:24:50;10.32;;;6.00;;
51312;SDS011;37397;53.226;10.400;2023-08-06T09:27:16;10.88;;;6.97;;
51312;SDS011;37397;53.226;10.400;2023-08-06T09:29:44;10.90;;;6.63;;
51312;SDS011;37397;53.226;10.400;2023-08-06T09:32:12;11.70;;;7.85;;
51312;SDS011;37397;53.226;10.400;2023-08-06T09:34:42;13.43;;;7.75;;
51312;SDS011;37397;53.226;10.400;2023-08-06T09:37:09;15.95;;;7.93;;
51312;SDS011;37397;53.226;10.400;2023-08-06T09:39:39;11.30;;;7.20;;
51312;SDS011;37397;53.226;10.400;2023-08-06T09:42:09;10.07;;;7.40;;
51312;SDS011;37397;53.226;10.400;2023-08-06T09:44:35;12.20;;;7.18;;
51312;SDS011;37397;53.226;10.400;2023-08-06T09:47:03;11.93;;;7.30;;
51312;SDS011;37397;53.226;10.400;2023-08-06T09:51:59;11.73;;;7.50;;
51312;SDS011;37397;53.226;10.400;2023-08-06T09:54:26;12.77;;;7.35;;
51312;SDS011;37397;53.226;10.400;2023-08-06T09:56:54;10.52;;;6.53;;
51312;SDS011;37397;53.226;10.400;2023-08-06T09:59:22;13.05;;;8.07;;
51312;SDS011;37397;53.226;10.400;2023-08-06T10:01:50;10.52;;;7.35;;
51312;SDS011;37397;53.226;10.400;2023-08-06T10:04:19;11.00;;;7.13;;
51312;SDS011;37397;53.226;10.400;2023-08-06T10:06:50;9.27;;;6.70;;
51312;SDS011;37397;53.226;10.400;2023-08-06T10:09:17;10.35;;;6.93;;
51312;SDS011;37397;53.226;10.400;2023-08-06T10:11:47;13.75;;;7.78;;
51312;SDS011;37397;53.226;10.400;2023-08-06T10:14:22;10.45;;;7.50;;
51312;SDS011;37397;53.226;10.400;2023-08-06T10:16:53;12.38;;;8.07;;
51312;SDS011;37397;53.226;10.400;2023-08-06T10:19:23;11.48;;;7.85;;
51312;SDS011;37397;53.226;10.400;2023-08-06T10:29:54;13.00;;;7.82;;
51312;SDS011;37397;53.226;10.400;2023-08-06T10:32:41;12.75;;;7.95;;
51312;SDS011;37397;53.226;10.400;2023-08-06T10:35:27;14.88;;;8.10;;
51312;SDS011;37397;53.226;10.400;2023-08-06T10:38:03;11.00;;;7.88;;
51312;SDS011;37397;53.226;10.400;2023-08-06T10:40:35;12.15;;;7.57;;
51312;SDS011;37397;53.226;10.400;2023-08-06T10:43:26;12.93;;;7.40;;
51312;SDS011;37397;53.226;10.400;2023-08-06T10:45:54;12.40;;;7.53;;
51312;SDS011;37397;53.226;10.400;2023-08-06T10:48:35;13.55;;;7.82;;
51312;SDS011;37397;53.226;10.400;2023-08-06T10:51:09;11.98;;;7.47;;
51312;SDS011;37397;53.226;10.400;2023-08-06T10:53:37;12.30;;;7.97;;
51312;SDS011;37397;53.226;10.400;2023-08-06T10:56:14;13.27;;;8.20;;
51312;SDS011;37397;53.226;10.400;2023-08-06T10:58:45;13.35;;;7.90;;
51312;SDS011;37397;53.226;10.400;2023-08-06T11:01:13;10.38;;;7.72;;
51312;SDS011;37397;53.226;10.400;2023-08-06T11:03:41;13.20;;;7.60;;
51312;SDS011;37397;53.226;10.400;2023-08-06T11:06:08;10.43;;;6.40;;
51312;SDS011;37397;53.226;10.400;2023-08-06T11:08:40;11.05;;;7.32;;
51312;SDS011;37397;53.226;10.400;2023-08-06T11:11:14;10.85;;;7.30;;
51312;SDS011;37397;53.226;10.400;2023-08-06T11:13:45;10.73;;;7.10;;
51312;SDS011;37397;53.226;10.400;2023-08-06T11:16:13;14.98;;;7.05;;
51312;SDS011;37397;53.226;10.400;2023-08-06T11:18:41;11.23;;;7.43;;
51312;SDS011;37397;53.226;10.400;2023-08-06T11:21:11;9.32;;;6.93;;
51312;SDS011;37397;53.226;10.400;2023-08-06T11:23:38;10.38;;;6.82;;
51312;SDS011;37397;53.226;10.400;2023-08-06T11:26:05;10.48;;;6.65;;
51312;SDS011;37397;53.226;10.400;2023-08-06T11:28:32;10.20;;;6.65;;
51312;SDS011;37397;53.226;10.400;2023-08-06T11:30:58;10.35;;;6.85;;
51312;SDS011;37397;53.226;10.400;2023-08-06T11:33:28;10.85;;;6.15;;
51312;SDS011;37397;53.226;10.400;2023-08-06T11:35:55;9.18;;;6.20;;
51312;SDS011;37397;53.226;10.400;2023-08-06T11:38:30;9.75;;;6.32;;
51312;SDS011;37397;53.226;10.400;2023-08-06T11:40:57;10.02;;;5.63;;
51312;SDS011;37397;53.226;10.400;2023-08-06T11:43:24;7.32;;;5.80;;
51312;SDS011;37397;53.226;10.400;2023-08-06T11:45:50;9.73;;;5.57;;
51312;SDS011;37397;53.226;10.400;2023-08-06T11:48:20;7.85;;;5.43;;
51312;SDS011;37397;53.226;10.400;2023-08-06T11:50:46;7.22;;;4.90;;
51312;SDS011;37397;53.226;10.400;2023-08-06T11:53:13;8.00;;;4.93;;
51312;SDS011;37397;53.226;10.400;2023-08-06T11:55:41;8.40;;;5.25;;
51312;SDS011;37397;53.226;10.400;2023-08-06T11:58:09;9.63;;;5.25;;
51312;SDS011;37397;53.226;10.400;2023-08-06T12:00:36;8.27;;;4.95;;
51312;SDS011;37397;53.226;10.400;2023-08-06T12:03:04;10.52;;;4.78;;
51312;SDS011;37397;53.226;10.400;2023-08-06T12:05:31;8.55;;;4.45;;
51312;SDS011;37397;53.226;10.400;2023-08-06T12:08:00;9.10;;;4.82;;
51312;SDS011;37397;53.226;10.400;2023-08-06T12:10:29;21.55;;;5.30;;
51312;SDS011;37397;53.226;10.400;2023-08-06T12:12:56;11.43;;;4.35;;
51312;SDS011;37397;53.226;10.400;2023-08-06T12:15:23;10.25;;;4.50;;
51312;SDS011;37397;53.226;10.400;2023-08-06T12:17:50;8.98;;;4.18;;
51312;SDS011;37397;53.226;10.400;2023-08-06T12:20:16;9.02;;;3.72;;
51312;SDS011;37397;53.226;10.400;2023-08-06T12:22:43;5.38;;;3.72;;
51312;SDS011;37397;53.226;10.400;2023-08-06T12:25:11;6.80;;;4.45;;
51312;SDS011;37397;53.226;10.400;2023-08-06T12:27:39;6.57;;;4.22;;
51312;SDS011;37397;53.226;10.400;2023-08-06T12:30:08;5.78;;;3.80;;
51312;SDS011;37397;53.226;10.400;2023-08-06T12:32:35;6.32;;;4.40;;
51312;SDS011;37397;53.226;10.400;2023-08-06T12:35:02;5.55;;;3.92;;
51312;SDS011;37397;53.226;10.400;2023-08-06T12:37:29;6.20;;;4.35;;
51312;SDS011;37397;53.226;10.400;2023-08-06T12:39:55;5.32;;;4.30;;
51312;SDS011;37397;53.226;10.400;2023-08-06T12:42:22;7.88;;;4.90;;
51312;SDS011;37397;53.226;10.400;2023-08-06T12:44:48;7.95;;;5.28;;
51312;SDS011;37397;53.226;10.400;2023-08-06T12:47:16;8.25;;;4.65;;
51312;SDS011;37397;53.226;10.400;2023-08-06T12:49:42;5.82;;;4.18;;
51312;SDS011;37397;53.226;10.400;2023-08-06T12:52:09;8.48;;;5.47;;
51312;SDS011;37397;53.226;10.400;2023-08-06T12:54:38;7.38;;;4.75;;
51312;SDS011;37397;53.226;10.400;2023-08-06T12:57:05;6.15;;;4.90;;
51312;SDS011;37397;53.226;10.400;2023-08-06T12:59:32;6.75;;;4.88;;
51312;SDS011;37397;53.226;10.400;2023-08-06T13:01:59;7.65;;;5.47;;
51312;SDS011;37397;53.226;10.400;2023-08-06T13:04:26;7.55;;;5.38;;
51312;SDS011;37397;53.226;10.400;2023-08-06T13:06:54;6.97;;;5.40;;
51312;SDS011;37397;53.226;10.400;2023-08-06T13:09:21;8.48;;;5.80;;
51312;SDS011;37397;53.226;10.400;2023-08-06T13:11:47;8.18;;;5.82;;
51312;SDS011;37397;53.226;10.400;2023-08-06T13:14:16;7.95;;;5.50;;
51312;SDS011;37397;53.226;10.400;2023-08-06T13:16:43;8.70;;;4.95;;
51312;SDS011;37397;53.226;10.400;2023-08-06T13:19:11;9.43;;;6.15;;
51312;SDS011;37397;53.226;10.400;2023-08-06T13:24:12;9.32;;;5.60;;
51312;SDS011;37397;53.226;10.400;2023-08-06T13:26:39;8.35;;;5.80;;
51312;SDS011;37397;53.226;10.400;2023-08-06T13:29:05;8.05;;;6.03;;
51312;SDS011;37397;53.226;10.400;2023-08-06T13:31:33;7.20;;;5.45;;
51312;SDS011;37397;53.226;10.400;2023-08-06T13:34:00;8.50;;;6.10;;
51312;SDS011;37397;53.226;10.400;2023-08-06T13:36:26;8.90;;;5.70;;
51312;SDS011;37397;53.226;10.400;2023-08-06T13:38:54;8.90;;;5.85;;
51312;SDS011;37397;53.226;10.400;2023-08-06T13:41:21;6.80;;;5.32;;
51312;SDS011;37397;53.226;10.400;2023-08-06T13:43:48;9.05;;;5.70;;
51312;SDS011;37397;53.226;10.400;2023-08-06T13:46:14;9.05;;;5.57;;
51312;SDS011;37397;53.226;10.400;2023-08-06T13:48:43;9.23;;;6.00;;
51312;SDS011;37397;53.226;10.400;2023-08-06T13:51:10;7.25;;;5.47;;
51312;SDS011;37397;53.226;10.400;2023-08-06T13:53:38;7.32;;;5.00;;
51312;SDS011;37397;53.226;10.400;2023-08-06T13:56:08;8.98;;;5.47;;
51312;SDS011;37397;53.226;10.400;2023-08-06T13:58:36;8.57;;;5.95;;
51312;SDS011;37397;53.226;10.400;2023-08-06T14:01:06;8.70;;;5.68;;
51312;SDS011;37397;53.226;10.400;2023-08-06T14:03:33;9.90;;;5.80;;
51312;SDS011;37397;53.226;10.400;2023-08-06T14:06:00;7.40;;;5.68;;
51312;SDS011;37397;53.226;10.400;2023-08-06T14:08:26;9.57;;;5.78;;
51312;SDS011;37397;53.226;10.400;2023-08-06T14:10:53;7.25;;;5.38;;
51312;SDS011;37397;53.226;10.400;2023-08-06T14:13:21;9.05;;;5.78;;
51312;SDS011;37397;53.226;10.400;2023-08-06T14:15:48;8.02;;;5.40;;
51312;SDS011;37397;53.226;10.400;2023-08-06T14:18:15;9.65;;;6.70;;
51312;SDS011;37397;53.226;10.400;2023-08-06T14:20:42;10.05;;;6.60;;
51312;SDS011;37397;53.226;10.400;2023-08-06T14:23:09;10.95;;;6.20;;
51312;SDS011;37397;53.226;10.400;2023-08-06T14:25:37;9.38;;;6.47;;
51312;SDS011;37397;53.226;10.400;2023-08-06T14:28:04;12.05;;;6.75;;
51312;SDS011;37397;53.226;10.400;2023-08-06T14:30:33;12.25;;;7.18;;
51312;SDS011;37397;53.226;10.400;2023-08-06T14:33:01;11.70;;;6.43;;
51312;SDS011;37397;53.226;10.400;2023-08-06T14:35:48;9.73;;;6.82;;
51312;SDS011;37397;53.226;10.400;2023-08-06T14:38:15;9.65;;;6.53;;
51312;SDS011;37397;53.226;10.400;2023-08-06T14:40:42;10.00;;;5.63;;
51312;SDS011;37397;53.226;10.400;2023-08-06T14:43:10;12.50;;;6.75;;
51312;SDS011;37397;53.226;10.400;2023-08-06T14:45:40;10.95;;;5.43;;
51312;SDS011;37397;53.226;10.400;2023-08-06T14:48:07;10.05;;;5.65;;